Time;durP1;ratioP1;P1;durP2;ratioP2;P2;SDS_P1;SDS_P2;PMS_P1;PMS_P2;Temp;Humidity;BMP_temperature;BMP_pressure;BME280_temperature;BME280_humidity;BME280_pressure;Samples;Min_cycle;Max_cycle;Signal;HPM_P1;HPM_P2
2022/10/06 00:01:41;;;;;;;2.70;2.05;;;11.80;98.20;;;;;;5038806;28;20257;-86
2022/10/06 00:04:08;;;;;;;2.15;1.73;;;11.80;98.10;;;;;;5036547;28;20226;-86
2022/10/06 00:06:43;;;;;;;2.20;1.90;;;11.60;97.90;;;;;;5037835;28;20220;-86
2022/10/06 00:09:18;;;;;;;5.20;2.50;;;11.60;98.20;;;;;;5023375;28;20675;-86
2022/10/06 00:11:49;;;;;;;5.03;1.80;;;11.50;98.40;;;;;;5034250;28;20202;-86
2022/10/06 00:14:30;;;;;;;2.78;1.95;;;11.50;98.50;;;;;;5035797;28;20238;-86
2022/10/06 00:17:02;;;;;;;1.98;1.70;;;11.50;98.50;;;;;;5030190;28;20281;-86
2022/10/06 00:19:31;;;;;;;3.83;1.92;;;11.40;98.50;;;;;;5031532;28;20192;-86
2022/10/06 00:21:58;;;;;;;2.85;1.83;;;11.40;98.60;;;;;;5033211;28;20218;-86
2022/10/06 00:24:26;;;;;;;2.53;2.00;;;11.30;98.70;;;;;;5032979;28;20249;-86
2022/10/06 00:26:53;;;;;;;5.47;1.75;;;11.20;99.00;;;;;;5029284;28;20227;-86
2022/10/06 00:29:19;;;;;;;2.10;1.90;;;11.20;99.00;;;;;;5030684;28;20306;-86
2022/10/06 00:31:46;;;;;;;1.60;1.50;;;11.20;99.10;;;;;;5034406;28;20192;-86
2022/10/06 00:34:15;;;;;;;4.13;1.73;;;11.20;99.20;;;;;;5038112;28;20293;-86
2022/10/06 00:36:43;;;;;;;3.38;1.83;;;11.20;99.40;;;;;;5038419;28;20217;-86
2022/10/06 00:39:13;;;;;;;3.03;1.75;;;11.20;99.50;;;;;;5037145;28;20195;-86
2022/10/06 00:41:40;;;;;;;2.20;2.00;;;11.20;99.50;;;;;;5038103;28;20273;-86
2022/10/06 00:44:06;;;;;;;2.83;1.83;;;11.20;99.60;;;;;;5038684;28;20206;-86
2022/10/06 00:46:40;;;;;;;3.65;1.90;;;11.20;99.70;;;;;;5039162;28;20639;-86
2022/10/06 00:49:16;;;;;;;1.70;1.60;;;11.30;99.60;;;;;;5033106;28;20205;-87
2022/10/06 00:51:46;;;;;;;2.78;1.70;;;11.30;99.30;;;;;;5036479;28;20206;-86
2022/10/06 00:54:13;;;;;;;1.90;1.70;;;11.40;99.20;;;;;;5034720;28;20688;-86
2022/10/06 00:56:43;;;;;;;2.80;1.90;;;11.30;99.00;;;;;;5040351;28;20205;-86
2022/10/06 00:59:11;;;;;;;1.90;1.70;;;11.30;99.00;;;;;;5039384;28;20217;-86
2022/10/06 01:01:41;;;;;;;2.95;1.90;;;11.30;99.00;;;;;;5039595;28;20217;-86
2022/10/06 01:04:14;;;;;;;4.88;1.88;;;11.30;99.00;;;;;;5039182;28;20214;-86
2022/10/06 01:06:48;;;;;;;3.33;2.03;;;11.30;99.00;;;;;;5037876;28;20224;-87
2022/10/06 01:09:16;;;;;;;2.63;1.60;;;11.20;99.00;;;;;;5035614;28;20242;-86
2022/10/06 01:11:51;;;;;;;4.95;2.10;;;11.20;99.00;;;;;;5035977;28;20514;-86
2022/10/06 01:14:20;;;;;;;3.97;1.75;;;11.20;99.00;;;;;;5028375;28;20198;-86
2022/10/06 01:16:51;;;;;;;2.85;2.03;;;11.30;99.00;;;;;;5037291;28;20652;-87
2022/10/06 01:19:28;;;;;;;1.65;1.55;;;11.30;98.80;;;;;;5037055;28;20203;-86
2022/10/06 01:21:59;;;;;;;3.65;1.60;;;11.30;98.60;;;;;;5031665;28;20212;-86
2022/10/06 01:24:33;;;;;;;1.63;1.30;;;11.40;98.20;;;;;;5031427;28;20202;-86
2022/10/06 01:27:01;;;;;;;1.77;1.65;;;11.40;97.80;;;;;;5034798;28;20215;-88
2022/10/06 01:29:38;;;;;;;2.47;1.88;;;11.40;98.10;;;;;;5038907;28;20201;-87
2022/10/06 01:32:07;;;;;;;2.42;1.90;;;11.40;97.60;;;;;;5034150;28;20208;-86
2022/10/06 01:34:34;;;;;;;3.65;1.60;;;11.30;97.70;;;;;;5033040;28;20217;-86
2022/10/06 01:37:07;;;;;;;4.68;1.90;;;11.20;97.80;;;;;;5036993;28;20289;-87
2022/10/06 01:39:45;;;;;;;3.10;1.70;;;11.10;98.10;;;;;;5037960;28;20319;-86
2022/10/06 01:42:11;;;;;;;4.80;1.48;;;11.10;98.30;;;;;;5037974;28;20285;-86
2022/10/06 01:44:39;;;;;;;2.28;1.65;;;11.10;98.30;;;;;;5034854;28;20401;-87
2022/10/06 01:47:06;;;;;;;3.25;1.77;;;11.10;98.20;;;;;;5041052;28;20317;-86
2022/10/06 01:49:34;;;;;;;2.17;1.30;;;11.00;98.00;;;;;;5034744;28;20262;-86
2022/10/06 01:52:01;;;;;;;1.98;1.50;;;10.90;98.10;;;;;;5030785;28;20289;-87
2022/10/06 01:54:31;;;;;;;1.70;1.60;;;10.90;98.40;;;;;;5031600;28;20293;-86
2022/10/06 01:56:59;;;;;;;2.60;1.40;;;10.80;98.50;;;;;;5041342;28;20265;-86
2022/10/06 01:59:26;;;;;;;2.63;2.13;;;10.90;98.60;;;;;;5038455;28;20288;-88
2022/10/06 02:01:55;;;;;;;3.20;1.60;;;10.90;98.60;;;;;;5032353;28;20298;-86
2022/10/06 02:04:22;;;;;;;2.40;1.50;;;10.90;98.30;;;;;;5023938;28;20213;-86
2022/10/06 02:06:50;;;;;;;2.30;1.50;;;10.80;98.40;;;;;;5024730;28;20597;-86
2022/10/06 02:09:17;;;;;;;1.85;1.40;;;10.70;98.40;;;;;;5034332;28;20278;-86
2022/10/06 02:11:44;;;;;;;2.65;1.90;;;10.70;98.50;;;;;;5032746;28;20195;-87
2022/10/06 02:14:12;;;;;;;2.97;1.40;;;10.70;98.50;;;;;;5035849;28;20267;-86
2022/10/06 02:16:39;;;;;;;1.90;1.70;;;10.70;98.80;;;;;;5035967;28;20202;-86
2022/10/06 02:19:13;;;;;;;3.88;1.90;;;10.60;98.50;;;;;;5036802;28;20195;-86
2022/10/06 02:21:40;;;;;;;2.97;1.80;;;10.70;98.60;;;;;;5036342;28;20199;-87
2022/10/06 02:24:13;;;;;;;2.45;1.70;;;10.70;98.50;;;;;;5035933;28;20273;-86
2022/10/06 02:26:40;;;;;;;2.03;1.70;;;10.70;98.50;;;;;;5031238;28;20218;-87
2022/10/06 02:29:07;;;;;;;4.10;1.70;;;10.70;98.50;;;;;;5036152;28;20290;-86
2022/10/06 02:31:35;;;;;;;1.70;1.60;;;10.60;98.60;;;;;;5039570;28;20245;-86
2022/10/06 02:34:02;;;;;;;3.28;1.90;;;10.60;98.80;;;;;;5035663;28;20195;-86
2022/10/06 02:36:29;;;;;;;2.38;1.83;;;10.60;99.00;;;;;;5033170;28;20616;-87
2022/10/06 02:38:56;;;;;;;3.63;1.60;;;10.60;98.90;;;;;;5036695;28;20666;-87
2022/10/06 02:41:24;;;;;;;4.25;1.85;;;10.60;98.80;;;;;;5032903;28;20210;-87
2022/10/06 02:44:01;;;;;;;2.00;1.70;;;10.50;98.90;;;;;;5031912;28;20195;-86
2022/10/06 02:46:28;;;;;;;1.73;1.50;;;10.50;99.00;;;;;;5034422;28;20745;-87
2022/10/06 02:48:57;;;;;;;1.60;1.50;;;10.50;98.90;;;;;;5038344;28;20322;-87
2022/10/06 02:51:24;;;;;;;2.70;1.60;;;10.50;99.10;;;;;;5027792;28;20198;-86
2022/10/06 02:53:52;;;;;;;2.88;1.70;;;10.40;99.10;;;;;;5033224;28;20320;-87
2022/10/06 02:56:22;;;;;;;2.08;1.80;;;10.40;99.10;;;;;;5032713;28;20199;-87
2022/10/06 02:58:50;;;;;;;7.90;1.80;;;10.40;99.30;;;;;;5037721;28;20202;-87
2022/10/06 03:01:19;;;;;;;4.80;1.80;;;10.40;99.40;;;;;;5036662;28;20234;-87
2022/10/06 03:03:47;;;;;;;4.57;1.88;;;10.30;99.50;;;;;;5036555;28;20293;-87
2022/10/06 03:06:23;;;;;;;2.75;1.73;;;10.20;99.40;;;;;;5038059;28;20225;-86
2022/10/06 03:08:53;;;;;;;3.15;1.45;;;10.20;99.60;;;;;;5035844;28;20216;-86
2022/10/06 03:11:22;;;;;;;2.45;2.10;;;10.20;99.70;;;;;;5030667;28;20226;-87
2022/10/06 03:13:50;;;;;;;4.85;2.10;;;10.20;99.60;;;;;;5033743;28;20281;-86
2022/10/06 03:16:18;;;;;;;2.38;1.80;;;10.20;99.70;;;;;;5035620;28;20217;-86
2022/10/06 03:18:48;;;;;;;2.45;1.88;;;10.10;99.90;;;;;;5040533;28;20285;-86
2022/10/06 03:21:17;;;;;;;1.90;1.70;;;10.10;99.90;;;;;;5037128;28;20199;-85
2022/10/06 03:23:46;;;;;;;3.08;1.80;;;10.10;99.90;;;;;;5032803;28;20210;-86
2022/10/06 03:26:21;;;;;;;2.10;1.75;;;10.10;99.90;;;;;;5039405;28;20199;-86
2022/10/06 03:28:55;;;;;;;2.00;1.80;;;10.10;99.90;;;;;;5039299;28;20268;-87
2022/10/06 03:31:23;;;;;;;4.43;2.10;;;10.10;99.90;;;;;;5038245;28;20734;-87
2022/10/06 03:33:51;;;;;;;3.03;1.92;;;10.10;99.90;;;;;;5032658;28;20226;-86
2022/10/06 03:36:21;;;;;;;1.92;1.65;;;10.10;99.90;;;;;;5031691;28;20202;-86
2022/10/06 03:38:49;;;;;;;2.50;1.50;;;10.20;99.90;;;;;;5032827;28;20207;-87
2022/10/06 03:41:20;;;;;;;1.75;1.65;;;10.20;99.90;;;;;;5036848;28;20578;-87
2022/10/06 03:43:49;;;;;;;1.83;1.58;;;10.20;99.90;;;;;;5031055;28;20251;-86
2022/10/06 03:46:18;;;;;;;3.60;2.20;;;10.20;99.90;;;;;;5035983;28;20262;-87
2022/10/06 03:48:46;;;;;;;4.32;1.70;;;10.20;99.90;;;;;;5037930;28;20670;-86
2022/10/06 03:51:15;;;;;;;2.92;1.75;;;10.20;99.90;;;;;;5033136;28;20207;-86
2022/10/06 03:53:53;;;;;;;2.85;1.73;;;10.20;99.90;;;;;;5034213;28;20677;-86
2022/10/06 03:56:22;;;;;;;3.67;1.77;;;10.20;99.90;;;;;;5038297;28;20202;-86
2022/10/06 03:58:51;;;;;;;3.42;1.73;;;10.10;99.90;;;;;;5039420;28;20290;-86
2022/10/06 04:01:38;;;;;;;3.35;1.80;;;10.10;99.90;;;;;;5040927;28;20306;-86
2022/10/06 04:04:14;;;;;;;2.08;1.88;;;10.00;99.90;;;;;;5039899;28;20207;-86
2022/10/06 04:06:43;;;;;;;3.08;1.90;;;10.00;99.90;;;;;;5037720;28;20226;-86
2022/10/06 04:09:13;;;;;;;3.22;1.83;;;10.00;99.90;;;;;;5035137;28;20747;-86
2022/10/06 04:11:50;;;;;;;4.18;1.92;;;10.00;99.90;;;;;;5039311;28;20271;-86
2022/10/06 04:14:17;;;;;;;2.45;1.65;;;10.00;99.90;;;;;;5037230;28;20262;-87
2022/10/06 04:16:46;;;;;;;1.80;1.70;;;10.00;99.90;;;;;;5039701;28;20230;-87
2022/10/06 04:19:14;;;;;;;2.70;1.98;;;9.90;99.90;;;;;;5040290;28;20710;-87
2022/10/06 04:21:43;;;;;;;2.92;2.00;;;9.90;99.90;;;;;;5040444;28;20245;-87
2022/10/06 04:24:12;;;;;;;3.55;1.83;;;9.90;99.90;;;;;;5039047;28;20480;-87
2022/10/06 04:26:51;;;;;;;;;;;;;;;;;;;;;
2022/10/06 04:29:19;;;;;;;2.42;1.50;;;9.90;99.90;;;;;;5034745;28;20234;-86
2022/10/06 04:31:49;;;;;;;3.08;1.50;;;9.90;99.90;;;;;;5038515;28;20203;-86
2022/10/06 04:34:36;;;;;;;2.90;1.60;;;9.90;99.90;;;;;;5019316;28;20202;-84
2022/10/06 04:37:05;;;;;;;2.20;1.65;;;9.90;99.90;;;;;;5038220;28;20204;-86
2022/10/06 04:39:33;;;;;;;4.55;1.80;;;9.90;99.90;;;;;;5034486;28;20218;-86
2022/10/06 04:42:19;;;;;;;2.80;1.58;;;9.90;99.90;;;;;;5039909;28;20297;-86
2022/10/06 04:44:46;;;;;;;1.90;1.60;;;9.80;99.90;;;;;;5036053;28;20207;-86
2022/10/06 04:47:14;;;;;;;3.25;1.73;;;9.80;99.90;;;;;;5037449;28;20202;-86
2022/10/06 04:49:49;;;;;;;3.72;1.67;;;9.80;99.90;;;;;;5035377;28;20274;-87
2022/10/06 04:52:19;;;;;;;2.75;1.98;;;9.70;99.90;;;;;;5033313;28;20205;-86
2022/10/06 04:54:49;;;;;;;4.05;1.70;;;9.60;99.90;;;;;;5037123;28;20286;-86
2022/10/06 04:57:25;;;;;;;1.67;1.58;;;9.60;99.90;;;;;;5038477;28;20199;-86
2022/10/06 05:03:13;;;;;;;1.83;1.58;;;9.60;99.90;;;;;;5037117;28;20206;-86
2022/10/06 05:05:40;;;;;;;3.38;1.70;;;9.60;99.90;;;;;;5035765;28;20223;-86
2022/10/06 05:08:07;;;;;;;2.05;1.85;;;9.60;99.90;;;;;;5033610;28;20303;-86
2022/10/06 05:10:36;;;;;;;4.85;1.90;;;9.60;99.90;;;;;;5025962;28;20194;-86
2022/10/06 05:13:25;;;;;;;2.50;1.90;;;9.50;99.90;;;;;;5036290;28;20258;-86
2022/10/06 05:15:56;;;;;;;2.28;1.88;;;9.50;99.90;;;;;;5035705;28;20195;-86
2022/10/06 05:18:23;;;;;;;2.58;1.63;;;9.60;99.90;;;;;;5019108;28;20705;-88
2022/10/06 05:20:58;;;;;;;2.35;1.80;;;9.70;99.90;;;;;;5043471;28;20258;-89
2022/10/06 05:23:40;;;;;;;2.28;1.90;;;9.90;99.90;;;;;;5041962;28;20206;-86
2022/10/06 05:26:33;;;;;;;2.08;1.65;;;9.90;99.80;;;;;;5039402;28;20218;-87
2022/10/06 05:29:00;;;;;;;4.63;1.92;;;9.90;99.70;;;;;;5040604;28;20313;-87
2022/10/06 05:31:30;;;;;;;2.70;1.90;;;9.90;99.60;;;;;;5040214;28;20229;-87
2022/10/06 05:33:58;;;;;;;2.15;1.88;;;9.90;99.90;;;;;;5040473;28;20199;-87
2022/10/06 05:36:28;;;;;;;3.80;1.90;;;9.80;99.70;;;;;;5041923;28;20282;-87
2022/10/06 05:39:13;;;;;;;3.60;2.20;;;9.80;99.90;;;;;;5039643;28;20244;-87
2022/10/06 05:41:50;;;;;;;2.10;1.75;;;9.70;99.90;;;;;;5042104;28;20210;-87
2022/10/06 05:44:17;;;;;;;4.93;2.10;;;9.70;99.90;;;;;;5043356;28;20206;-87
2022/10/06 05:46:44;;;;;;;2.92;2.08;;;9.60;99.90;;;;;;5043902;28;20222;-87
2022/10/06 05:49:37;;;;;;;3.47;1.90;;;9.70;99.90;;;;;;5046199;28;20227;-87
2022/10/06 05:52:07;;;;;;;3.75;1.80;;;9.70;99.90;;;;;;5042439;28;20230;-86
2022/10/06 05:54:34;;;;;;;4.10;2.00;;;9.80;99.90;;;;;;5030577;28;20633;-86
2022/10/06 05:57:27;;;;;;;6.13;2.20;;;9.90;99.90;;;;;;5042289;28;20206;-86
2022/10/06 05:59:55;;;;;;;2.95;1.83;;;10.00;99.70;;;;;;5032564;28;20682;-87
2022/10/06 06:02:49;;;;;;;5.45;2.17;;;10.10;99.50;;;;;;5042313;28;20289;-86
2022/10/06 06:06:01;;;;;;;3.47;2.10;;;10.10;99.10;;;;;;5043722;28;20242;-86
2022/10/06 06:08:28;;;;;;;4.13;2.00;;;10.10;99.40;;;;;;5042247;28;20245;-86
2022/10/06 06:10:55;;;;;;;4.70;1.98;;;10.10;99.40;;;;;;5040002;28;20194;-86
2022/10/06 06:13:27;;;;;;;3.72;2.25;;;10.20;99.80;;;;;;5037656;28;20201;-87
2022/10/06 06:16:03;;;;;;;6.88;2.63;;;10.20;99.40;;;;;;5038060;28;20273;-86
2022/10/06 06:18:37;;;;;;;5.05;2.30;;;10.20;99.50;;;;;;5030596;28;20198;-87
2022/10/06 06:21:09;;;;;;;3.88;2.10;;;10.40;99.40;;;;;;5032529;28;20236;-86
2022/10/06 06:24:02;;;;;;;3.65;2.30;;;10.50;99.10;;;;;;5037003;28;20297;-85
2022/10/06 06:26:33;;;;;;;5.07;2.33;;;10.60;99.00;;;;;;5035714;28;20209;-87
2022/10/06 06:29:05;;;;;;;3.97;2.08;;;10.60;99.00;;;;;;5035478;28;20203;-86
2022/10/06 06:31:39;;;;;;;4.88;2.25;;;10.60;99.10;;;;;;5036952;28;20191;-86
2022/10/06 06:34:13;;;;;;;6.28;2.42;;;10.70;99.30;;;;;;5029480;28;20221;-86
2022/10/06 06:37:18;;;;;;;4.85;2.53;;;10.70;99.20;;;;;;5037242;28;20202;-85
2022/10/06 06:39:55;;;;;;;5.78;1.98;;;10.70;99.50;;;;;;5033077;28;20201;-86
2022/10/06 06:42:31;;;;;;;4.45;2.60;;;10.80;99.60;;;;;;5031990;28;20206;-86
2022/10/06 06:44:59;;;;;;;4.90;2.60;;;10.90;99.40;;;;;;5038457;28;20745;-86
2022/10/06 06:47:26;;;;;;;8.02;2.63;;;11.10;99.10;;;;;;5037618;28;20357;-86
2022/10/06 06:50:03;;;;;;;5.47;2.50;;;11.20;99.00;;;;;;5038065;28;20211;-85
2022/10/06 06:52:49;;;;;;;7.95;2.67;;;11.30;98.80;;;;;;5037538;28;20198;-86
2022/10/06 06:55:19;;;;;;;3.17;2.22;;;11.30;98.70;;;;;;5028716;28;20233;-85
2022/10/06 06:57:55;;;;;;;5.35;2.65;;;11.40;98.80;;;;;;5036856;28;20261;-86
2022/10/06 07:00:32;;;;;;;3.08;2.40;;;11.40;98.80;;;;;;5038784;28;20198;-87
2022/10/06 07:03:54;;;;;;;5.30;2.20;;;11.50;98.70;;;;;;5039263;28;20221;-86
2022/10/06 07:06:27;;;;;;;4.80;2.25;;;11.60;98.70;;;;;;5040328;28;20254;-86
2022/10/06 07:09:02;;;;;;;3.33;2.00;;;11.80;98.60;;;;;;5040812;28;20217;-86
2022/10/06 07:27:10;;;;;;;3.08;2.20;;;12.70;96.20;;;;;;5032575;28;20214;-86
2022/10/06 07:29:37;;;;;;;3.55;1.88;;;12.80;95.40;;;;;;5038433;28;20708;-87
2022/10/06 07:32:07;;;;;;;2.97;2.10;;;13.00;95.00;;;;;;5030795;28;20626;-88
2022/10/06 07:34:45;;;;;;;2.67;1.90;;;13.20;94.30;;;;;;5030736;28;20274;-87
2022/10/06 07:37:27;;;;;;;2.20;1.70;;;13.30;93.50;;;;;;5038449;28;20195;-87
2022/10/06 07:39:55;;;;;;;3.38;1.90;;;13.50;93.30;;;;;;5021585;28;20659;-87
2022/10/06 07:42:25;;;;;;;2.35;1.63;;;13.60;92.40;;;;;;5030735;28;20197;-87
2022/10/06 07:48:02;;;;;;;2.63;1.85;;;13.90;91.20;;;;;;5033688;28;20681;-87
2022/10/06 07:50:40;;;;;;;5.82;1.95;;;14.00;90.80;;;;;;5033813;28;20206;-88
2022/10/06 07:53:19;;;;;;;5.18;1.90;;;14.20;90.10;;;;;;5029770;28;20210;-87
2022/10/06 07:55:49;;;;;;;2.30;1.50;;;14.30;89.80;;;;;;5033211;28;20206;-87
2022/10/06 07:58:22;;;;;;;3.20;2.00;;;14.50;89.70;;;;;;5029179;28;20274;-87
2022/10/06 08:01:28;;;;;;;4.57;1.75;;;14.60;87.00;;;;;;5026148;28;20195;-88
2022/10/06 08:04:05;;;;;;;4.63;2.10;;;14.70;86.50;;;;;;5034795;28;20276;-87
2022/10/06 08:06:39;;;;;;;3.30;2.08;;;14.80;85.80;;;;;;5033908;28;20297;-88
2022/10/06 08:09:08;;;;;;;5.28;2.10;;;15.00;84.00;;;;;;5027531;28;20301;-87
2022/10/06 08:11:35;;;;;;;3.90;2.15;;;15.20;82.10;;;;;;5023484;28;20565;-87
2022/10/06 08:14:02;;;;;;;4.10;2.22;;;15.40;78.10;;;;;;5028324;28;20543;-87
2022/10/06 08:16:31;;;;;;;7.25;2.20;;;15.50;77.70;;;;;;5034595;28;20199;-87
2022/10/06 08:19:39;;;;;;;3.17;2.00;;;15.80;77.90;;;;;;5034224;28;20233;-86
2022/10/06 08:22:21;;;;;;;3.08;2.10;;;16.00;75.40;;;;;;5031425;28;20282;-86
2022/10/06 08:24:48;;;;;;;3.60;2.00;;;16.20;72.30;;;;;;5033596;28;20222;-88
2022/10/06 08:27:19;;;;;;;5.43;2.17;;;16.30;73.30;;;;;;5033383;28;20897;-87
2022/10/06 08:29:46;;;;;;;4.70;2.38;;;16.30;70.10;;;;;;5032020;28;20219;-87
2022/10/06 08:32:37;;;;;;;2.55;2.30;;;16.40;69.90;;;;;;5032612;28;20222;-88
2022/10/06 08:35:20;;;;;;;3.95;2.30;;;16.50;72.30;;;;;;5027883;28;20220;-87
2022/10/06 08:37:51;;;;;;;3.33;2.20;;;16.60;66.00;;;;;;5029605;28;20240;-88
2022/10/06 08:43:55;;;;;;;4.82;2.08;;;17.00;65.60;;;;;;5026053;28;20194;-88
2022/10/06 08:46:27;;;;;;;3.72;2.10;;;17.10;66.00;;;;;;5031095;28;20201;-88
2022/10/06 08:49:02;;;;;;;3.60;2.13;;;17.20;64.00;;;;;;5032424;28;20221;-88
2022/10/06 08:55:37;;;;;;;4.25;1.90;;;17.50;61.10;;;;;;5034062;28;20205;-87
2022/10/06 08:58:33;;;;;;;4.70;1.95;;;18.30;54.40;;;;;;5033847;28;20737;-88
2022/10/06 09:01:17;;;;;;;3.47;2.25;;;18.90;51.60;;;;;;5032479;28;20198;-87
2022/10/06 09:03:51;;;;;;;3.70;2.10;;;19.60;47.20;;;;;;5032591;28;20190;-85
2022/10/06 09:06:41;;;;;;;4.13;2.17;;;20.40;41.80;;;;;;5030966;28;20673;-83
2022/10/06 09:09:24;;;;;;;4.40;2.10;;;21.60;35.10;;;;;;5035709;28;20298;-83
2022/10/06 09:12:28;;;;;;;5.63;2.45;;;22.50;29.00;;;;;;5036980;28;20649;-85
2022/10/06 09:15:25;;;;;;;3.78;2.20;;;23.40;24.80;;;;;;5042700;28;20205;-86
2022/10/06 09:17:59;;;;;;;4.10;2.47;;;24.50;22.20;;;;;;5035082;28;20209;-86
2022/10/06 09:20:36;;;;;;;3.03;2.50;;;25.30;20.30;;;;;;5028839;28;20206;-87
2022/10/06 09:23:15;;;;;;;3.60;2.30;;;25.90;18.20;;;;;;5036626;28;20684;-86
2022/10/06 09:25:43;;;;;;;6.72;2.83;;;26.30;17.70;;;;;;5027966;28;20198;-87
2022/10/06 09:28:19;;;;;;;3.80;2.38;;;26.70;17.10;;;;;;5033664;28;20201;-87
2022/10/06 09:30:52;;;;;;;3.58;2.60;;;27.30;15.30;;;;;;5033612;28;20213;-87
2022/10/06 09:33:23;;;;;;;2.95;2.53;;;27.30;15.30;;;;;;5030145;28;20552;-86
2022/10/06 09:36:25;;;;;;;6.95;2.70;;;27.90;14.50;;;;;;5036375;28;20198;-87
2022/10/06 09:39:23;;;;;;;5.50;3.05;;;28.10;14.20;;;;;;5032543;28;20575;-86
2022/10/06 09:42:03;;;;;;;6.80;2.97;;;27.30;15.30;;;;;;5037928;28;20244;-87
2022/10/06 09:44:46;;;;;;;4.85;2.97;;;27.00;15.10;;;;;;5035595;28;20641;-86
2022/10/06 09:47:49;;;;;;;5.80;2.85;;;27.20;15.30;;;;;;5027977;28;20191;-89
2022/10/06 09:50:42;;;;;;;3.15;2.70;;;26.60;15.00;;;;;;5012627;28;20242;-86
2022/10/06 09:53:31;;;;;;;4.13;2.97;;;26.80;16.00;;;;;;5033966;28;20206;-85
2022/10/06 09:56:20;;;;;;;4.55;2.92;;;27.00;15.10;;;;;;5034867;28;20888;-87
2022/10/06 09:58:57;;;;;;;4.45;3.03;;;26.80;15.00;;;;;;5027932;28;20198;-86
2022/10/06 10:01:37;;;;;;;6.15;2.78;;;27.10;15.20;;;;;;5025702;28;20189;-86
2022/10/06 10:04:26;;;;;;;5.05;3.08;;;27.20;15.20;;;;;;5033467;28;20285;-87
2022/10/06 10:07:31;;;;;;;3.00;2.70;;;27.40;15.40;;;;;;5032580;28;20376;-86
2022/10/06 10:10:24;;;;;;;7.55;3.28;;;26.40;15.80;;;;;;4989955;28;20559;-87
2022/10/06 10:13:01;;;;;;;8.60;2.90;;;26.00;16.90;;;;;;5036428;28;20198;-86
2022/10/06 10:15:52;;;;;;;4.55;3.15;;;25.30;18.40;;;;;;5033798;28;20190;-86
2022/10/06 10:18:32;;;;;;;5.30;2.90;;;25.00;18.90;;;;;;5033579;28;20190;-87
2022/10/06 10:21:05;;;;;;;3.55;2.80;;;25.00;19.80;;;;;;5029216;28;20210;-85
2022/10/06 10:23:34;;;;;;;4.07;3.00;;;25.30;21.60;;;;;;5040961;28;20596;-86
2022/10/06 10:26:29;;;;;;;5.25;3.08;;;25.40;20.90;;;;;;5034788;28;20654;-87
2022/10/06 10:29:32;;;;;;;9.48;2.95;;;25.50;19.10;;;;;;5035106;28;20224;-85
2022/10/06 10:32:10;;;;;;;5.55;3.03;;;25.80;18.70;;;;;;5032315;28;20204;-86
2022/10/06 10:35:00;;;;;;;5.18;3.10;;;25.60;19.80;;;;;;5028923;28;20260;-86
2022/10/06 10:38:07;;;;;;;7.70;3.55;;;25.20;20.90;;;;;;4973403;28;20421;-86
2022/10/06 10:40:50;;;;;;;5.15;3.13;;;25.20;21.90;;;;;;4972160;28;20254;-87
2022/10/06 10:43:39;;;;;;;3.33;2.90;;;24.70;20.10;;;;;;4973577;28;20200;-86
2022/10/06 10:46:34;;;;;;;4.88;3.00;;;24.10;21.60;;;;;;4964828;28;20200;-86
2022/10/06 10:49:13;;;;;;;5.78;2.75;;;23.40;23.10;;;;;;4974412;28;20224;-87
2022/10/06 10:51:54;;;;;;;3.10;2.75;;;22.80;25.40;;;;;;4976818;28;20196;-85
2022/10/06 10:54:34;;;;;;;4.32;2.85;;;22.70;26.60;;;;;;4974358;28;20200;-85
2022/10/06 10:57:17;;;;;;;4.55;2.78;;;22.50;35.90;;;;;;4967838;28;20200;-83
2022/10/06 10:59:58;;;;;;;6.75;2.83;;;22.40;29.50;;;;;;4976666;28;20196;-83
2022/10/06 11:02:26;;;;;;;7.13;2.63;;;22.30;31.00;;;;;;4974431;28;20230;-83
2022/10/06 11:05:16;;;;;;;3.83;2.45;;;22.50;27.40;;;;;;4971480;28;20253;-82
2022/10/06 11:07:48;;;;;;;4.93;2.78;;;22.40;28.60;;;;;;4977316;28;20208;-82
2022/10/06 11:10:31;;;;;;;4.97;3.35;;;22.10;29.00;;;;;;4994587;28;20208;-84
2022/10/06 11:13:25;;;;;;;6.25;3.33;;;22.10;29.50;;;;;;4997577;28;20202;-84
2022/10/06 11:16:20;;;;;;;4.75;2.75;;;22.00;31.20;;;;;;5025641;28;20211;-84
2022/10/06 11:19:15;;;;;;;5.68;2.70;;;21.70;33.20;;;;;;5036246;28;20254;-84
2022/10/06 11:21:56;;;;;;;6.13;3.17;;;21.50;31.60;;;;;;5038820;28;20195;-84
2022/10/06 11:24:31;;;;;;;5.10;3.05;;;21.20;33.10;;;;;;5025094;28;20202;-87
2022/10/06 11:27:22;;;;;;;5.40;3.05;;;21.20;33.20;;;;;;5036293;28;20829;-85
2022/10/06 11:30:10;;;;;;;4.43;2.85;;;21.10;33.90;;;;;;5031916;28;20287;-86
2022/10/06 11:32:49;;;;;;;8.15;3.13;;;21.00;38.00;;;;;;5034271;28;20187;-85
2022/10/06 11:35:21;;;;;;;5.30;2.90;;;20.70;39.00;;;;;;5036972;28;20190;-85
2022/10/06 11:37:54;;;;;;;7.93;3.00;;;20.60;41.00;;;;;;5036140;28;20202;-86
2022/10/06 11:40:59;;;;;;;6.82;3.20;;;20.50;43.50;;;;;;5025512;28;20205;-85
2022/10/06 11:43:46;;;;;;;5.72;2.95;;;20.50;42.50;;;;;;5027015;28;20715;-86
2022/10/06 11:46:35;;;;;;;9.13;2.88;;;20.50;45.80;;;;;;5031251;28;20195;-85
2022/10/06 11:49:38;;;;;;;8.25;3.10;;;20.70;45.80;;;;;;5033095;28;20217;-85
2022/10/06 11:52:54;;;;;;;7.97;3.20;;;20.90;40.50;;;;;;5030543;28;20221;-85
2022/10/06 11:55:27;;;;;;;3.78;2.70;;;21.20;39.50;;;;;;5040925;28;20574;-86
2022/10/06 11:58:15;;;;;;;5.25;2.85;;;21.40;37.20;;;;;;5036690;28;20202;-85
2022/10/06 12:00:48;;;;;;;4.82;3.03;;;21.30;40.70;;;;;;5031123;28;20195;-86
2022/10/06 12:03:55;;;;;;;6.05;3.22;;;21.30;40.50;;;;;;5035185;28;20226;-86
2022/10/06 12:07:13;;;;;;;4.80;3.08;;;21.30;40.20;;;;;;5028463;28;20301;-85
2022/10/06 12:09:51;;;;;;;4.57;2.70;;;21.00;40.10;;;;;;5032598;28;20257;-85
2022/10/06 12:12:43;;;;;;;6.18;2.53;;;21.00;40.80;;;;;;5034634;28;20199;-86
2022/10/06 12:15:49;;;;;;;4.20;2.60;;;20.90;39.60;;;;;;5030279;28;20199;-86
2022/10/06 12:18:50;;;;;;;3.35;2.80;;;20.80;39.60;;;;;;5031245;28;20205;-85
2022/10/06 12:21:33;;;;;;;5.07;2.50;;;20.80;40.70;;;;;;4956917;28;20656;-86
2022/10/06 12:24:36;;;;;;;3.95;3.03;;;20.90;41.60;;;;;;4960157;28;20710;-86
2022/10/06 12:27:24;;;;;;;5.13;2.42;;;21.10;43.10;;;;;;4935848;28;20224;-85
2022/10/06 12:30:22;;;;;;;4.25;2.40;;;21.20;37.40;;;;;;4954470;28;20293;-85
2022/10/06 12:32:56;;;;;;;4.43;2.40;;;21.40;37.00;;;;;;4959343;28;20209;-85
2022/10/06 12:36:07;;;;;;;7.15;2.83;;;21.20;38.60;;;;;;4959809;29;20208;-85
2022/10/06 12:39:00;;;;;;;5.65;2.75;;;21.00;41.50;;;;;;4951442;28;20292;-85
2022/10/06 12:41:59;;;;;;;6.05;2.60;;;21.00;40.40;;;;;;4959630;28;20752;-86
2022/10/06 12:44:37;;;;;;;2.97;2.40;;;21.10;38.00;;;;;;4938542;29;20261;-85
2022/10/06 12:47:17;;;;;;;5.10;2.70;;;21.00;37.70;;;;;;4951025;28;20209;-85
2022/10/06 12:49:47;;;;;;;6.45;2.72;;;20.90;38.30;;;;;;4958290;28;20230;-85
2022/10/06 12:52:44;;;;;;;5.45;2.42;;;21.10;37.80;;;;;;4956885;29;20235;-85
2022/10/06 12:58:50;;;;;;;9.85;2.80;;;20.90;41.00;;;;;;5017080;28;20224;-85
2022/10/06 13:01:22;;;;;;;7.43;3.15;;;20.90;44.00;;;;;;5039292;28;20286;-85
2022/10/06 13:03:55;;;;;;;9.18;3.10;;;21.00;43.20;;;;;;5039066;28;20198;-85
2022/10/06 13:06:26;;;;;;;11.73;3.10;;;20.70;44.00;;;;;;5035446;28;20676;-86
2022/10/06 13:09:14;;;;;;;4.65;2.78;;;20.40;46.40;;;;;;5038487;28;20199;-85
2022/10/06 13:11:43;;;;;;;10.40;3.05;;;20.10;50.20;;;;;;5034596;28;20210;-85
2022/10/06 13:14:13;;;;;;;7.30;3.10;;;20.00;53.00;;;;;;5032955;28;20280;-85
2022/10/06 13:20:06;;;;;;;6.35;2.60;;;20.10;52.60;;;;;;5039229;28;20197;-85
2022/10/06 13:22:38;;;;;;;7.10;2.83;;;20.10;53.50;;;;;;5034449;28;20199;-85
2022/10/06 13:25:05;;;;;;;7.20;3.08;;;20.20;55.20;;;;;;5040477;28;20221;-86
2022/10/06 13:27:32;;;;;;;5.03;2.63;;;20.20;54.80;;;;;;5036530;28;20211;-86
2022/10/06 13:30:18;;;;;;;7.07;2.92;;;20.10;52.60;;;;;;5033407;28;20650;-86
2022/10/06 13:32:56;;;;;;;7.75;3.13;;;20.20;49.30;;;;;;5027738;28;20190;-86
2022/10/06 13:35:33;;;;;;;9.05;5.93;;;20.10;49.50;;;;;;5037858;28;20285;-86
2022/10/06 13:38:19;;;;;;;3.45;2.90;;;20.10;49.30;;;;;;5035708;28;20201;-87
2022/10/06 13:41:31;;;;;;;6.78;2.92;;;20.30;48.70;;;;;;5030784;28;20210;-87
2022/10/06 13:44:00;;;;;;;5.22;2.65;;;20.10;49.20;;;;;;5030813;28;20209;-86
2022/10/06 13:46:39;;;;;;;4.35;2.67;;;20.00;50.50;;;;;;5037293;28;20198;-86
2022/10/06 13:49:17;;;;;;;4.00;2.80;;;19.80;50.70;;;;;;5033442;28;20194;-86
2022/10/06 13:52:17;;;;;;;3.92;2.72;;;19.60;52.40;;;;;;5036718;28;20294;-86
2022/10/06 13:54:53;;;;;;;7.63;2.97;;;19.50;55.40;;;;;;5036471;28;20208;-86
2022/10/06 13:57:40;;;;;;;5.82;2.67;;;19.40;54.60;;;;;;5038583;28;20209;-86
2022/10/06 14:00:31;;;;;;;6.63;2.60;;;19.30;55.30;;;;;;5038401;28;20198;-86
2022/10/06 14:03:09;;;;;;;5.85;2.70;;;19.30;55.30;;;;;;5034819;28;20205;-85
2022/10/06 14:05:38;;;;;;;6.45;2.80;;;19.30;55.30;;;;;;5023563;28;20223;-85
2022/10/06 14:08:22;;;;;;;4.05;2.40;;;19.20;55.20;;;;;;5029245;28;20258;-88
2022/10/06 14:11:09;;;;;;;2.67;2.28;;;19.20;55.50;;;;;;5035717;28;20293;-85
2022/10/06 14:13:47;;;;;;;4.85;2.78;;;19.10;56.50;;;;;;5024583;28;20653;-86
2022/10/06 14:16:22;;;;;;;4.30;2.85;;;19.00;57.20;;;;;;5029341;28;20268;-86